createdAt,value
2023-02-18T00:00:42.500Z,10.10
2023-02-18T00:01:47.021Z,10.10
2023-02-18T00:02:52.526Z,10.10
2023-02-18T00:03:56.753Z,10.10
2023-02-18T00:04:59.861Z,10.10
2023-02-18T00:06:14.215Z,10.10
2023-02-18T00:07:20.640Z,10.10
2023-02-18T00:08:24.596Z,10.10
2023-02-18T00:09:28.986Z,10.10
2023-02-18T00:10:33.631Z,10.10
2023-02-18T00:11:38.343Z,10.10
2023-02-18T00:12:44.256Z,10.10
2023-02-18T00:13:51.517Z,10.10
2023-02-18T00:14:55.888Z,10.10
2023-02-18T00:16:03.112Z,10.10
2023-02-18T00:17:07.672Z,10.10
2023-02-18T00:18:10.725Z,10.10
2023-02-18T00:19:19.129Z,10.10
2023-02-18T00:20:22.390Z,10.10
2023-02-18T00:21:27.571Z,10.10
2023-02-18T00:22:32.526Z,10.10
2023-02-18T00:23:39.545Z,10.10
2023-02-18T00:24:43.030Z,10.10
2023-02-18T00:25:48.708Z,10.10
2023-02-18T00:26:54.092Z,10.10
2023-02-18T00:27:58.920Z,10.10
2023-02-18T00:29:03.641Z,10.10
2023-02-18T00:30:09.091Z,10.10
2023-02-18T00:31:17.350Z,10.10
2023-02-18T00:32:21.636Z,10.10
2023-02-18T00:33:25.894Z,10.10
2023-02-18T00:34:29.069Z,10.00
2023-02-18T00:35:33.458Z,10.00
2023-02-18T00:36:37.122Z,10.00
2023-02-18T00:37:42.851Z,10.00
2023-02-18T00:38:47.075Z,10.00
2023-02-18T00:39:54.088Z,10.00
2023-02-18T00:40:56.927Z,10.00
2023-02-18T00:42:04.344Z,9.90
2023-02-18T00:43:07.298Z,9.90
2023-02-18T00:44:12.453Z,9.90
2023-02-18T00:45:16.093Z,9.90
2023-02-18T00:46:20.298Z,9.90
2023-02-18T00:47:23.979Z,9.90
2023-02-18T00:48:28.998Z,9.90
2023-02-18T00:49:33.465Z,9.90
2023-02-18T00:50:39.928Z,9.80
2023-02-18T00:51:44.899Z,9.80
2023-02-18T00:52:50.542Z,9.80
2023-02-18T00:53:55.218Z,9.80
2023-02-18T00:54:58.707Z,9.80
2023-02-18T00:56:03.802Z,9.80
2023-02-18T00:57:07.131Z,9.80
2023-02-18T00:58:11.300Z,9.80
2023-02-18T00:59:14.744Z,9.80
2023-02-18T01:00:20.312Z,9.70
2023-02-18T01:01:24.612Z,9.70
2023-02-18T01:02:29.760Z,9.70
2023-02-18T01:03:33.323Z,9.70
2023-02-18T01:04:37.886Z,9.70
2023-02-18T01:05:42.032Z,9.70
2023-02-18T01:06:47.421Z,9.70
2023-02-18T01:07:51.944Z,9.70
2023-02-18T01:08:56.682Z,9.70
2023-02-18T01:10:00.366Z,9.70
2023-02-18T01:11:07.338Z,9.70
2023-02-18T01:12:10.225Z,9.70
2023-02-18T01:13:14.827Z,9.60
2023-02-18T01:14:18.340Z,9.60
2023-02-18T01:15:20.906Z,9.60
2023-02-18T01:16:24.638Z,9.60
2023-02-18T01:17:27.460Z,9.60
2023-02-18T01:18:31.534Z,9.60
2023-02-18T01:19:33.986Z,9.60
2023-02-18T01:20:38.803Z,9.60
2023-02-18T01:21:43.253Z,9.60
2023-02-18T01:22:46.958Z,9.60
2023-02-18T01:23:51.243Z,9.60
2023-02-18T01:24:54.737Z,9.60
2023-02-18T01:25:58.598Z,9.60
2023-02-18T01:27:02.214Z,9.60
2023-02-18T01:28:06.208Z,9.60
2023-02-18T01:29:09.813Z,9.60
2023-02-18T01:30:19.276Z,9.60
2023-02-18T01:31:22.858Z,9.50
2023-02-18T01:32:28.741Z,9.60
2023-02-18T01:33:32.348Z,9.50
2023-02-18T01:34:37.218Z,9.50
2023-02-18T01:35:41.817Z,9.50
2023-02-18T01:36:45.284Z,9.50
2023-02-18T01:37:49.214Z,9.50
2023-02-18T01:38:54.655Z,9.50
2023-02-18T01:39:58.635Z,9.50
2023-02-18T01:41:02.210Z,9.50
2023-02-18T01:42:05.461Z,9.50
2023-02-18T01:43:12.595Z,9.50
2023-02-18T01:44:18.868Z,9.50
2023-02-18T01:46:01.008Z,9.50
2023-02-18T01:47:04.484Z,9.50
2023-02-18T01:48:12.086Z,9.50
2023-02-18T01:49:21.041Z,9.50
2023-02-18T01:50:23.534Z,9.50
2023-02-18T01:51:32.016Z,9.50
2023-02-18T01:52:34.538Z,9.50
2023-02-18T01:53:47.005Z,9.50
2023-02-18T01:54:55.658Z,9.50
2023-02-18T01:56:02.402Z,9.50
2023-02-18T01:57:10.710Z,9.50
2023-02-18T01:58:14.398Z,9.50
2023-02-18T01:59:23.012Z,9.50
2023-02-18T02:00:26.022Z,9.50
2023-02-18T02:01:30.528Z,9.50
2023-02-18T02:02:37.603Z,9.50
2023-02-18T02:03:41.044Z,9.50
2023-02-18T02:04:44.191Z,9.50
2023-02-18T02:05:46.653Z,9.50
2023-02-18T02:06:52.593Z,9.50
2023-02-18T02:07:55.706Z,9.50
2023-02-18T02:09:03.675Z,9.50
2023-02-18T02:10:10.443Z,9.50
2023-02-18T02:11:42.272Z,9.50
2023-02-18T02:12:58.501Z,9.50
2023-02-18T02:14:26.616Z,9.50
2023-02-18T02:15:42.790Z,9.50
2023-02-18T02:16:56.470Z,9.50
2023-02-18T02:18:18.762Z,9.50
2023-02-18T02:20:13.059Z,9.50
2023-02-18T02:22:06.580Z,9.50
2023-02-18T02:23:57.900Z,9.50
2023-02-18T02:25:17.778Z,9.50
2023-02-18T02:27:16.294Z,9.50
2023-02-18T02:28:56.715Z,9.50
2023-02-18T02:30:41.330Z,9.50
2023-02-18T02:32:23.867Z,9.50
2023-02-18T02:34:07.639Z,9.50
2023-02-18T02:35:28.366Z,9.50
2023-02-18T02:36:50.230Z,9.50
2023-02-18T02:38:03.174Z,9.50
2023-02-18T02:39:16.286Z,9.50
2023-02-18T02:40:30.507Z,9.50
2023-02-18T02:41:47.011Z,9.50
2023-02-18T02:43:07.268Z,9.50
2023-02-18T02:44:23.010Z,9.50
2023-02-18T02:45:44.956Z,9.50
2023-02-18T02:46:52.093Z,9.50
2023-02-18T02:48:06.182Z,9.50
2023-02-18T02:49:24.924Z,9.60
2023-02-18T02:50:38.848Z,9.50
2023-02-18T02:51:48.369Z,9.60
2023-02-18T02:52:57.190Z,9.60
2023-02-18T02:54:14.230Z,9.60
2023-02-18T02:55:17.864Z,9.60
2023-02-18T02:56:25.392Z,9.60
2023-02-18T02:57:53.116Z,9.60
2023-02-18T02:59:03.377Z,9.60
2023-02-18T03:00:15.872Z,9.60
2023-02-18T03:01:37.288Z,9.60
2023-02-18T03:03:05.045Z,9.60
2023-02-18T03:04:52.586Z,9.60
2023-02-18T03:06:42.879Z,9.60
2023-02-18T03:08:23.378Z,9.70
2023-02-18T03:09:43.249Z,9.70
2023-02-18T03:10:59.564Z,9.70
2023-02-18T03:12:12.518Z,9.70
2023-02-18T03:13:27.830Z,9.70
2023-02-18T03:14:39.616Z,9.70
2023-02-18T03:15:50.725Z,9.70
2023-02-18T03:17:04.685Z,9.70
2023-02-18T03:18:15.504Z,9.70
2023-02-18T03:19:27.203Z,9.70
2023-02-18T03:20:39.402Z,9.70
2023-02-18T03:21:49.252Z,9.70
2023-02-18T03:22:53.769Z,9.80
2023-02-18T03:24:03.294Z,9.80
2023-02-18T03:25:07.632Z,9.80
2023-02-18T03:26:12.796Z,9.80
2023-02-18T03:27:20.257Z,9.80
2023-02-18T03:28:27.347Z,9.80
2023-02-18T03:29:31.345Z,9.80
2023-02-18T03:30:42.825Z,9.80
2023-02-18T03:31:52.691Z,9.80
2023-02-18T03:33:04.062Z,9.80
2023-02-18T03:34:11.875Z,9.80
2023-02-18T03:35:18.858Z,9.80
2023-02-18T03:36:23.708Z,9.70
2023-02-18T03:37:30.570Z,9.70
2023-02-18T03:38:39.300Z,9.70
2023-02-18T03:39:47.078Z,9.70
2023-02-18T03:40:50.640Z,9.70
2023-02-18T03:41:54.638Z,9.70
2023-02-18T03:42:58.062Z,9.70
2023-02-18T03:44:05.277Z,9.70
2023-02-18T03:45:08.212Z,9.70
2023-02-18T03:46:12.133Z,9.70
2023-02-18T03:47:15.140Z,9.70
2023-02-18T03:48:18.718Z,9.70
2023-02-18T03:49:21.659Z,9.70
2023-02-18T03:50:25.633Z,9.70
2023-02-18T03:51:28.488Z,9.70
2023-02-18T03:52:33.488Z,9.70
2023-02-18T03:53:36.794Z,9.70
2023-02-18T03:54:40.463Z,9.70
2023-02-18T03:55:44.283Z,9.70
2023-02-18T03:56:47.958Z,9.70
2023-02-18T03:57:50.485Z,9.70
2023-02-18T03:58:53.958Z,9.70
2023-02-18T03:59:56.425Z,9.70
2023-02-18T04:00:59.973Z,9.70
2023-02-18T04:02:02.743Z,9.70
2023-02-18T04:03:06.344Z,9.70
2023-02-18T04:04:08.868Z,9.70
2023-02-18T04:05:12.616Z,9.70
2023-02-18T04:06:15.094Z,9.70
2023-02-18T04:07:18.696Z,9.70
2023-02-18T04:08:22.730Z,9.70
2023-02-18T04:09:26.637Z,9.70
2023-02-18T04:10:29.231Z,9.70
2023-02-18T04:11:32.845Z,9.70
2023-02-18T04:12:35.337Z,9.70
2023-02-18T04:13:38.839Z,9.70
2023-02-18T04:14:41.479Z,9.70
2023-02-18T04:15:45.301Z,9.70
2023-02-18T04:16:47.820Z,9.70
2023-02-18T04:17:51.556Z,9.70
2023-02-18T04:18:54.035Z,9.70
2023-02-18T04:19:57.567Z,9.70
2023-02-18T04:21:00.017Z,9.70
2023-02-18T04:22:04.176Z,9.70
2023-02-18T04:23:06.648Z,9.70
2023-02-18T04:24:11.625Z,9.80
2023-02-18T04:25:14.290Z,9.80
2023-02-18T04:26:18.084Z,9.80
2023-02-18T04:27:20.611Z,9.80
2023-02-18T04:28:24.421Z,9.80
2023-02-18T04:29:27.071Z,9.80
2023-02-18T04:30:30.751Z,9.80
2023-02-18T04:31:33.461Z,9.80
2023-02-18T04:32:36.933Z,9.80
2023-02-18T04:33:39.364Z,9.80
2023-02-18T04:34:43.276Z,9.80
2023-02-18T04:35:46.153Z,9.80
2023-02-18T04:36:49.563Z,9.80
2023-02-18T04:37:53.020Z,9.80
2023-02-18T04:38:55.496Z,9.80
2023-02-18T04:40:00.618Z,9.80
2023-02-18T04:41:03.303Z,9.80
2023-02-18T04:42:09.123Z,9.80
2023-02-18T04:43:11.809Z,9.80
2023-02-18T04:44:15.512Z,9.80
2023-02-18T04:45:18.062Z,9.80
2023-02-18T04:46:21.598Z,9.80
2023-02-18T04:47:24.238Z,9.80
2023-02-18T04:48:27.770Z,9.80
2023-02-18T04:49:30.344Z,9.80
2023-02-18T04:50:34.049Z,9.90
2023-02-18T04:51:37.669Z,9.90
2023-02-18T04:52:41.186Z,9.90
2023-02-18T04:53:43.762Z,9.90
2023-02-18T04:54:47.319Z,9.90
2023-02-18T04:55:52.423Z,9.90
2023-02-18T04:56:55.989Z,9.90
2023-02-18T04:57:58.530Z,9.90
2023-02-18T04:59:02.407Z,9.90
2023-02-18T05:00:07.233Z,9.90
2023-02-18T05:01:11.588Z,9.90
2023-02-18T05:02:14.100Z,9.90
2023-02-18T05:03:17.867Z,9.90
2023-02-18T05:04:20.539Z,9.90
2023-02-18T05:05:24.095Z,9.90
2023-02-18T05:06:26.649Z,9.90
2023-02-18T05:07:30.172Z,9.90
2023-02-18T05:08:32.688Z,9.90
2023-02-18T05:09:36.166Z,9.90
2023-02-18T05:10:39.348Z,9.90
2023-02-18T05:11:45.690Z,9.90
2023-02-18T05:12:48.206Z,9.90
2023-02-18T05:13:51.812Z,9.90
2023-02-18T05:14:54.579Z,9.90
2023-02-18T05:15:58.096Z,10.00
2023-02-18T05:17:00.875Z,10.00
2023-02-18T05:18:04.456Z,10.00
2023-02-18T05:19:07.383Z,10.00
2023-02-18T05:20:12.215Z,10.00
2023-02-18T05:21:14.735Z,10.00
2023-02-18T05:22:18.216Z,10.00
2023-02-18T05:23:21.427Z,10.00
2023-02-18T05:24:25.038Z,10.00
2023-02-18T05:25:27.523Z,10.00
2023-02-18T05:26:31.066Z,10.00
2023-02-18T05:27:35.073Z,10.00
2023-02-18T05:28:38.532Z,10.00
2023-02-18T05:29:41.054Z,10.00
2023-02-18T05:30:44.692Z,10.00
2023-02-18T05:31:47.451Z,10.10
2023-02-18T05:32:51.065Z,10.10
2023-02-18T05:33:53.547Z,10.10
2023-02-18T05:34:57.027Z,10.10
2023-02-18T05:35:59.655Z,10.10
2023-02-18T05:37:03.105Z,10.10
2023-02-18T05:38:05.703Z,10.10
2023-02-18T05:39:09.297Z,10.10
2023-02-18T05:40:12.798Z,10.10
2023-02-18T05:41:16.377Z,10.10
2023-02-18T05:42:18.837Z,10.10
2023-02-18T05:43:23.891Z,10.10
2023-02-18T05:44:32.677Z,10.10
2023-02-18T05:45:37.231Z,10.10
2023-02-18T05:46:39.808Z,10.10
2023-02-18T05:47:43.282Z,10.10
2023-02-18T05:48:45.723Z,10.10
2023-02-18T05:49:49.249Z,10.10
2023-02-18T05:50:54.096Z,10.10
2023-02-18T05:51:58.090Z,10.20
2023-02-18T05:53:01.578Z,10.20
2023-02-18T05:54:05.264Z,10.20
2023-02-18T05:55:09.342Z,10.20
2023-02-18T05:56:11.858Z,10.20
2023-02-18T05:57:16.518Z,10.20
2023-02-18T05:58:27.477Z,10.20
2023-02-18T05:59:30.760Z,10.20
2023-02-18T06:00:34.293Z,10.20
2023-02-18T06:01:36.797Z,10.20
2023-02-18T06:02:40.583Z,10.20
2023-02-18T06:03:43.159Z,10.20
2023-02-18T06:04:46.635Z,10.20
2023-02-18T06:05:50.878Z,10.20
2023-02-18T06:06:54.832Z,10.20
2023-02-18T06:07:57.266Z,10.20
2023-02-18T06:09:00.866Z,10.20
2023-02-18T06:10:04.957Z,10.30
2023-02-18T06:11:07.423Z,10.30
2023-02-18T06:12:10.849Z,10.30
2023-02-18T06:13:13.790Z,10.30
2023-02-18T06:14:18.682Z,10.30
2023-02-18T06:15:21.093Z,10.30
2023-02-18T06:16:24.799Z,10.30
2023-02-18T06:17:27.308Z,10.30
2023-02-18T06:18:30.733Z,10.30
2023-02-18T06:19:33.323Z,10.30
2023-02-18T06:20:36.904Z,10.30
2023-02-18T06:21:40.342Z,10.30
2023-02-18T06:22:42.852Z,10.30
2023-02-18T06:23:46.512Z,10.30
2023-02-18T06:24:49.055Z,10.30
2023-02-18T06:25:52.807Z,10.30
2023-02-18T06:26:55.381Z,10.30
2023-02-18T06:27:58.872Z,10.30
2023-02-18T06:29:01.417Z,10.30
2023-02-18T06:30:08.353Z,10.30
2023-02-18T06:31:10.991Z,10.30
2023-02-18T06:32:14.704Z,10.30
2023-02-18T06:33:17.663Z,10.30
2023-02-18T06:34:21.141Z,10.30
2023-02-18T06:35:23.772Z,10.30
2023-02-18T06:36:27.246Z,10.30
2023-02-18T06:37:29.992Z,10.30
2023-02-18T06:38:33.959Z,10.30
2023-02-18T06:39:36.492Z,10.30
2023-02-18T06:40:39.939Z,10.30
2023-02-18T06:41:42.477Z,10.30
2023-02-18T06:42:46.081Z,10.30
2023-02-18T06:43:48.540Z,10.30
2023-02-18T06:44:52.290Z,10.30
2023-02-18T06:45:56.473Z,10.30
2023-02-18T06:47:00.050Z,10.30
2023-02-18T06:48:02.648Z,10.30
2023-02-18T06:49:06.272Z,10.20
2023-02-18T06:50:09.464Z,10.20
2023-02-18T06:51:13.178Z,10.20
2023-02-18T06:52:15.720Z,10.20
2023-02-18T06:53:19.287Z,10.20
2023-02-18T06:54:21.895Z,10.20
2023-02-18T06:55:25.380Z,10.20
2023-02-18T06:56:30.057Z,10.20
2023-02-18T06:57:34.478Z,10.20
2023-02-18T06:58:37.007Z,10.20
2023-02-18T06:59:40.512Z,10.20
2023-02-18T07:00:43.111Z,10.20
2023-02-18T07:01:48.108Z,10.20
2023-02-18T07:02:50.978Z,10.20
2023-02-18T07:03:54.547Z,10.20
2023-02-18T07:04:57.202Z,10.20
2023-02-18T07:06:01.101Z,10.20
2023-02-18T07:07:03.630Z,10.20
2023-02-18T07:08:07.299Z,10.20
2023-02-18T07:09:09.869Z,10.20
2023-02-18T07:10:13.576Z,10.20
2023-02-18T07:11:16.172Z,10.20
2023-02-18T07:12:19.719Z,10.20
2023-02-18T07:13:22.309Z,10.20
2023-02-18T07:14:26.595Z,10.20
2023-02-18T07:15:29.170Z,10.20
2023-02-18T07:16:32.767Z,10.20
2023-02-18T07:17:36.698Z,10.20
2023-02-18T07:18:40.260Z,10.20
2023-02-18T07:19:42.882Z,10.20
2023-02-18T07:20:46.423Z,10.20
2023-02-18T07:21:49.089Z,10.20
2023-02-18T07:22:52.995Z,10.20
2023-02-18T07:23:55.473Z,10.20
2023-02-18T07:25:00.000Z,10.20
2023-02-18T07:26:11.109Z,10.20
2023-02-18T07:27:13.965Z,10.20
2023-02-18T07:28:17.797Z,10.20
2023-02-18T07:29:20.337Z,10.20
2023-02-18T07:30:24.110Z,10.20
2023-02-18T07:31:27.067Z,10.20
2023-02-18T07:32:30.839Z,10.30
2023-02-18T07:33:34.935Z,10.20
2023-02-18T07:34:38.528Z,10.30
2023-02-18T07:35:41.216Z,10.30
2023-02-18T07:36:44.880Z,10.30
2023-02-18T07:37:49.021Z,10.30
2023-02-18T07:38:52.595Z,10.30
2023-02-18T07:39:56.043Z,10.30
2023-02-18T07:41:00.688Z,10.30
2023-02-18T07:42:04.072Z,10.30
2023-02-18T07:43:09.605Z,10.30
2023-02-18T07:44:12.225Z,10.30
2023-02-18T07:45:16.374Z,10.30
2023-02-18T07:46:19.331Z,10.30
2023-02-18T07:47:23.054Z,10.30
2023-02-18T07:48:25.621Z,10.30
2023-02-18T07:49:30.728Z,10.30
2023-02-18T07:50:36.971Z,10.30
2023-02-18T07:51:40.577Z,10.30
2023-02-18T07:52:44.206Z,10.30
2023-02-18T07:53:47.164Z,10.30
2023-02-18T07:54:50.764Z,10.30
2023-02-18T07:55:53.348Z,10.30
2023-02-18T07:56:56.940Z,10.30
2023-02-18T07:58:01.092Z,10.30
2023-02-18T07:59:04.887Z,10.30
2023-02-18T08:00:09.363Z,10.30
2023-02-18T08:01:17.116Z,10.30
2023-02-18T08:02:22.044Z,10.30
2023-02-18T08:03:27.967Z,10.30
2023-02-18T08:04:31.999Z,10.30
2023-02-18T08:05:35.777Z,10.20
2023-02-18T08:06:42.841Z,10.20
2023-02-18T08:07:46.709Z,10.20
2023-02-18T08:08:49.225Z,10.20
2023-02-18T08:09:52.964Z,10.20
2023-02-18T08:11:01.072Z,10.20
2023-02-18T08:12:07.227Z,10.10
2023-02-18T08:13:10.790Z,10.10
2023-02-18T08:14:14.436Z,10.10
2023-02-18T08:15:17.242Z,10.10
2023-02-18T08:16:22.557Z,10.10
2023-02-18T08:17:25.360Z,10.10
2023-02-18T08:18:28.966Z,10.10
2023-02-18T08:19:33.121Z,10.10
2023-02-18T08:20:38.294Z,10.10
2023-02-18T08:21:40.992Z,10.10
2023-02-18T08:22:44.648Z,10.00
2023-02-18T08:23:47.898Z,10.00
2023-02-18T08:24:51.625Z,10.00
2023-02-18T08:25:54.778Z,10.00
2023-02-18T08:27:01.186Z,10.00
2023-02-18T08:28:04.739Z,10.00
2023-02-18T08:29:08.317Z,10.00
2023-02-18T08:30:12.620Z,10.00
2023-02-18T08:31:22.719Z,10.00
2023-02-18T08:32:28.138Z,10.00
2023-02-18T08:33:31.969Z,10.00
2023-02-18T08:34:35.959Z,10.00
2023-02-18T08:35:40.018Z,10.00
2023-02-18T08:36:42.641Z,10.00
2023-02-18T08:37:53.120Z,10.00
2023-02-18T08:38:57.626Z,10.00
2023-02-18T08:40:02.553Z,10.00
2023-02-18T08:41:10.411Z,10.00
2023-02-18T08:42:14.477Z,10.00
2023-02-18T08:43:19.482Z,10.00
2023-02-18T08:44:22.037Z,10.00
2023-02-18T08:45:25.646Z,10.00
2023-02-18T08:46:35.450Z,10.00
2023-02-18T08:48:16.547Z,10.00
2023-02-18T08:49:03.711Z,10.10
2023-02-18T08:50:08.734Z,10.10
2023-02-18T08:51:18.259Z,10.10
2023-02-18T08:52:21.194Z,10.10
2023-02-18T08:53:24.897Z,10.10
2023-02-18T08:54:28.671Z,10.10
2023-02-18T08:55:32.404Z,10.10
2023-02-18T08:56:36.465Z,10.10
2023-02-18T08:57:39.234Z,10.10
2023-02-18T08:58:43.324Z,10.10
2023-02-18T08:59:46.085Z,10.20
2023-02-18T09:00:49.713Z,10.20
2023-02-18T09:01:52.965Z,10.20
2023-02-18T09:02:56.437Z,10.20
2023-02-18T09:03:59.205Z,10.20
2023-02-18T09:05:03.874Z,10.20
2023-02-18T09:06:09.067Z,10.20
2023-02-18T09:07:12.657Z,10.20
2023-02-18T09:08:15.224Z,10.20
2023-02-18T09:09:19.318Z,10.20
2023-02-18T09:10:22.507Z,10.20
2023-02-18T09:11:26.186Z,10.30
2023-02-18T09:12:29.208Z,10.30
2023-02-18T09:13:33.033Z,10.30
2023-02-18T09:14:35.865Z,10.30
2023-02-18T09:15:39.534Z,10.30
2023-02-18T09:16:43.351Z,10.30
2023-02-18T09:17:47.158Z,10.30
2023-02-18T09:18:49.929Z,10.30
2023-02-18T09:19:53.622Z,10.30
2023-02-18T09:21:01.351Z,10.30
2023-02-18T09:22:06.511Z,10.30
2023-02-18T09:23:09.004Z,10.30
2023-02-18T09:24:12.562Z,10.30
2023-02-18T09:25:15.226Z,10.30
2023-02-18T09:26:23.099Z,10.30
2023-02-18T09:27:26.028Z,10.40
2023-02-18T09:28:29.654Z,10.40
2023-02-18T09:29:34.364Z,10.40
2023-02-18T09:30:37.308Z,10.40
2023-02-18T09:31:41.114Z,10.40
2023-02-18T09:32:46.000Z,10.50
2023-02-18T09:33:54.842Z,10.50
2023-02-18T09:34:58.917Z,10.50
2023-02-18T09:36:03.370Z,10.50
2023-02-18T09:37:07.423Z,10.50
2023-02-18T09:38:12.939Z,10.60
2023-02-18T09:39:18.184Z,10.60
2023-02-18T09:40:26.891Z,10.60
2023-02-18T09:41:39.601Z,10.60
2023-02-18T09:42:42.301Z,10.60
2023-02-18T09:43:49.602Z,10.70
2023-02-18T09:45:02.240Z,10.70
2023-02-18T09:46:08.485Z,10.70
2023-02-18T09:47:16.637Z,10.70
2023-02-18T09:48:20.312Z,10.70
2023-02-18T09:49:31.500Z,10.70
2023-02-18T09:50:35.198Z,10.80
2023-02-18T09:51:38.934Z,10.80
2023-02-18T09:52:44.132Z,10.80
2023-02-18T09:53:47.375Z,10.80
2023-02-18T09:54:51.395Z,10.80
2023-02-18T09:55:57.593Z,10.80
2023-02-18T09:57:01.457Z,10.80
2023-02-18T09:58:08.281Z,10.90
2023-02-18T09:59:18.626Z,10.90
2023-02-18T10:00:29.884Z,10.90
2023-02-18T10:01:36.979Z,10.90
2023-02-18T10:02:42.921Z,10.90
2023-02-18T10:03:46.687Z,10.90
2023-02-18T10:04:52.439Z,11.00
2023-02-18T10:06:02.020Z,11.00
2023-02-18T10:07:06.808Z,11.00
2023-02-18T10:09:35.533Z,11.00
2023-02-18T10:10:43.546Z,11.00
2023-02-18T10:11:52.698Z,11.00
2023-02-18T10:12:55.693Z,11.00
2023-02-18T10:14:02.776Z,11.10
2023-02-18T10:15:17.571Z,11.10
2023-02-18T10:16:23.806Z,11.00
2023-02-18T10:17:30.896Z,11.10
2023-02-18T10:18:41.343Z,11.00
2023-02-18T10:19:47.868Z,11.00
2023-02-18T10:20:53.900Z,11.00
2023-02-18T10:21:58.496Z,11.10
2023-02-18T10:23:05.448Z,11.10
2023-02-18T10:24:32.713Z,11.10
2023-02-18T10:26:47.322Z,11.10
2023-02-18T10:27:52.277Z,11.10
2023-02-18T10:28:56.413Z,11.20
2023-02-18T10:30:17.106Z,11.20
2023-02-18T10:31:29.918Z,11.20
2023-02-18T10:32:37.920Z,11.20
2023-02-18T10:33:48.491Z,11.30
2023-02-18T10:35:01.160Z,11.30
2023-02-18T10:36:32.498Z,11.30
2023-02-18T10:37:53.516Z,11.30
2023-02-18T10:39:32.381Z,11.30
2023-02-18T10:40:54.362Z,11.40
2023-02-18T10:42:11.176Z,11.40
2023-02-18T10:43:22.437Z,11.40
2023-02-18T10:44:38.069Z,11.40
2023-02-18T10:45:52.601Z,11.40
2023-02-18T10:47:07.916Z,11.40
2023-02-18T10:48:45.485Z,11.50
2023-02-18T10:50:00.127Z,11.50
2023-02-18T10:51:16.245Z,11.50
2023-02-18T10:52:20.876Z,11.60
2023-02-18T10:53:35.241Z,11.60
2023-02-18T10:54:58.997Z,11.70
2023-02-18T10:56:05.228Z,11.80
2023-02-18T10:57:19.701Z,11.80
2023-02-18T10:58:37.339Z,11.90
2023-02-18T10:59:40.373Z,11.90
2023-02-18T11:00:44.179Z,12.00
2023-02-18T11:01:57.737Z,12.10
2023-02-18T11:03:18.578Z,12.10
2023-02-18T11:04:28.241Z,12.20
2023-02-18T11:05:31.046Z,12.20
2023-02-18T11:06:41.169Z,12.20
2023-02-18T11:07:50.521Z,12.30
2023-02-18T11:08:57.521Z,12.30
2023-02-18T11:10:08.913Z,12.30
2023-02-18T11:11:19.378Z,12.30
2023-02-18T11:12:27.254Z,12.30
2023-02-18T11:13:32.897Z,12.30
2023-02-18T11:14:45.236Z,12.30
2023-02-18T11:15:59.610Z,12.40
2023-02-18T11:17:18.570Z,12.40
2023-02-18T11:18:32.665Z,12.40
2023-02-18T11:19:39.853Z,12.40
2023-02-18T11:20:54.538Z,12.40
2023-02-18T11:22:16.353Z,12.40
2023-02-18T11:23:22.584Z,12.40
2023-02-18T11:24:25.849Z,12.40
2023-02-18T11:25:34.876Z,12.40
2023-02-18T11:26:41.675Z,12.40
2023-02-18T11:27:48.803Z,12.40
2023-02-18T11:28:58.893Z,12.30
2023-02-18T11:30:05.933Z,12.30
2023-02-18T11:31:11.632Z,12.30
2023-02-18T11:32:15.762Z,12.30
2023-02-18T11:33:22.183Z,12.30
2023-02-18T11:34:33.439Z,12.30
2023-02-18T11:35:38.899Z,12.20
2023-02-18T11:36:42.162Z,12.20
2023-02-18T11:37:45.846Z,12.20
2023-02-18T11:38:52.734Z,12.20
2023-02-18T11:39:57.676Z,12.20
2023-02-18T11:41:07.249Z,12.20
2023-02-18T11:42:17.523Z,12.20
2023-02-18T11:43:20.765Z,12.20
2023-02-18T11:44:29.961Z,12.20
2023-02-18T11:45:36.305Z,12.20
2023-02-18T11:46:38.931Z,12.10
2023-02-18T11:47:42.448Z,12.10
2023-02-18T11:48:45.288Z,12.10
2023-02-18T11:50:16.066Z,12.10
2023-02-18T11:51:26.647Z,12.20
2023-02-18T11:52:36.325Z,12.20
2023-02-18T11:53:40.591Z,12.30
2023-02-18T11:54:44.246Z,12.40
2023-02-18T11:55:57.322Z,12.50
2023-02-18T11:57:05.215Z,12.60
2023-02-18T11:58:13.663Z,12.70
2023-02-18T11:59:17.304Z,12.90
2023-02-18T12:01:47.840Z,13.10
2023-02-18T12:02:52.222Z,13.10
2023-02-18T12:04:01.121Z,13.20
2023-02-18T12:05:12.500Z,13.30
2023-02-18T12:06:21.946Z,13.30
2023-02-18T12:07:31.923Z,13.30
2023-02-18T12:08:44.978Z,13.40
2023-02-18T12:09:53.081Z,13.40
2023-02-18T12:11:02.057Z,13.40
2023-02-18T12:12:13.161Z,13.40
2023-02-18T12:13:27.663Z,13.40
2023-02-18T12:14:30.362Z,13.40
2023-02-18T12:15:53.803Z,13.30
2023-02-18T12:17:27.844Z,13.30
2023-02-18T12:18:58.425Z,13.20
2023-02-18T12:20:40.347Z,13.20
2023-02-18T12:21:57.568Z,13.10
2023-02-18T12:23:10.874Z,13.10
2023-02-18T12:24:41.956Z,13.00
2023-02-18T12:25:55.360Z,13.00
2023-02-18T12:27:12.141Z,13.00
2023-02-18T12:28:33.906Z,13.10
2023-02-18T12:30:08.165Z,13.20
2023-02-18T12:31:35.411Z,13.20
2023-02-18T12:32:49.046Z,13.30
2023-02-18T12:34:13.153Z,13.40
2023-02-18T12:35:49.295Z,13.50
2023-02-18T12:37:05.962Z,13.60
2023-02-18T12:38:56.491Z,13.70
2023-02-18T12:40:22.498Z,13.90
2023-02-18T12:41:56.319Z,14.10
2023-02-18T12:43:11.142Z,14.40
2023-02-18T12:44:33.380Z,14.70
2023-02-18T12:46:24.883Z,14.80
2023-02-18T12:48:11.082Z,15.00
2023-02-18T12:50:14.378Z,15.20
2023-02-18T12:51:42.376Z,15.30
2023-02-18T12:53:05.234Z,15.30
2023-02-18T12:54:36.201Z,15.30
2023-02-18T12:56:07.808Z,15.20
2023-02-18T12:57:44.922Z,15.10
2023-02-18T12:59:00.949Z,15.00
2023-02-18T13:00:45.966Z,14.80
2023-02-18T13:02:01.255Z,14.70
2023-02-18T13:03:47.210Z,14.50
2023-02-18T13:05:00.179Z,14.40
2023-02-18T13:06:20.506Z,14.30
2023-02-18T13:07:49.090Z,14.20
2023-02-18T13:08:59.370Z,14.20
2023-02-18T13:10:25.611Z,14.10
2023-02-18T13:11:43.808Z,14.10
2023-02-18T13:12:54.260Z,14.00
2023-02-18T13:14:10.430Z,14.00
2023-02-18T13:15:21.178Z,14.00
2023-02-18T13:16:25.659Z,14.00
2023-02-18T13:17:36.335Z,14.10
2023-02-18T13:18:43.515Z,14.20
2023-02-18T13:19:52.265Z,14.40
2023-02-18T13:21:00.345Z,14.50
2023-02-18T13:22:07.373Z,14.50
2023-02-18T13:23:20.097Z,14.60
2023-02-18T13:24:34.173Z,14.70
2023-02-18T13:25:39.749Z,14.80
2023-02-18T13:26:45.644Z,14.90
2023-02-18T13:28:02.394Z,15.00
2023-02-18T13:29:23.126Z,15.20
2023-02-18T13:30:36.023Z,15.40
2023-02-18T13:31:48.295Z,15.60
2023-02-18T13:33:06.137Z,15.70
2023-02-18T13:34:18.679Z,15.90
2023-02-18T13:35:28.046Z,15.90
2023-02-18T13:36:49.623Z,15.90
2023-02-18T13:38:09.560Z,15.90
2023-02-18T13:39:20.006Z,15.90
2023-02-18T13:40:28.745Z,15.80
2023-02-18T13:41:37.578Z,15.80
2023-02-18T13:42:41.324Z,15.80
2023-02-18T13:43:46.533Z,15.70
2023-02-18T13:45:30.060Z,15.70
2023-02-18T13:46:49.561Z,15.60
2023-02-18T13:47:53.412Z,15.60
2023-02-18T13:49:08.136Z,15.50
2023-02-18T13:50:43.193Z,15.50
2023-02-18T13:51:49.274Z,15.40
2023-02-18T13:52:58.761Z,15.40
2023-02-18T13:54:11.848Z,15.30
2023-02-18T13:55:21.900Z,15.30
2023-02-18T13:56:32.379Z,15.30
2023-02-18T13:57:39.312Z,15.30
2023-02-18T13:58:50.118Z,15.30
2023-02-18T13:59:59.183Z,15.40
2023-02-18T14:01:15.021Z,15.40
2023-02-18T14:02:35.102Z,15.40
2023-02-18T14:03:54.678Z,15.50
2023-02-18T14:05:15.269Z,15.50
2023-02-18T14:06:20.659Z,15.50
2023-02-18T14:07:48.296Z,15.40
2023-02-18T14:08:52.929Z,15.40
2023-02-18T14:09:57.655Z,15.40
2023-02-18T14:11:43.565Z,15.40
2023-02-18T14:13:20.524Z,15.40
2023-02-18T14:14:40.821Z,15.40
2023-02-18T14:16:00.254Z,15.30
2023-02-18T14:17:44.826Z,15.30
2023-02-18T14:19:01.847Z,15.30
2023-02-18T14:20:51.475Z,15.30
2023-02-18T14:22:27.645Z,15.30
2023-02-18T14:24:01.903Z,15.30
2023-02-18T14:25:21.874Z,15.30
2023-02-18T14:26:34.495Z,15.20
2023-02-18T14:27:40.301Z,15.30
2023-02-18T14:28:49.785Z,15.30
2023-02-18T14:29:54.278Z,15.30
2023-02-18T14:30:58.083Z,15.30
2023-02-18T14:32:05.387Z,15.30
2023-02-18T14:33:16.690Z,15.30
2023-02-18T14:35:10.130Z,15.40
2023-02-18T14:36:30.979Z,15.30
2023-02-18T14:38:32.165Z,15.40
2023-02-18T14:39:52.055Z,15.40
2023-02-18T14:41:28.622Z,15.50
2023-02-18T14:42:43.666Z,15.50
2023-02-18T14:44:21.197Z,15.50
2023-02-18T14:45:44.864Z,15.50
2023-02-18T14:47:06.980Z,15.50
2023-02-18T14:48:42.552Z,15.50
2023-02-18T14:49:49.300Z,15.40
2023-02-18T14:50:53.359Z,15.40
2023-02-18T14:51:59.727Z,15.30
2023-02-18T14:53:10.454Z,15.30
2023-02-18T14:54:19.883Z,15.20
2023-02-18T14:55:28.243Z,15.20
2023-02-18T14:56:31.276Z,15.10
2023-02-18T14:57:42.229Z,15.10
2023-02-18T14:58:50.722Z,15.00
2023-02-18T15:00:00.678Z,15.00
2023-02-18T15:01:08.609Z,14.90